Time;durP1;ratioP1;P1;durP2;ratioP2;P2;SDS_P1;SDS_P2;PMS_P1;PMS_P2;Temp;Humidity;BMP_temperature;BMP_pressure;BME280_temperature;BME280_humidity;BME280_pressure;Samples;Min_cycle;Max_cycle;Signal;HPM_P1;HPM_P2
2023/04/21 00:00:14;;;;;;;7.85;3.25;;;11.50;95.60;;;;;;6248321;22;20020;-77
2023/04/21 00:02:41;;;;;;;7.70;3.47;;;11.50;95.70;;;;;;6223239;22;20023;-77
2023/04/21 00:05:09;;;;;;;10.23;4.18;;;11.50;95.60;;;;;;6248038;22;20019;-77
2023/04/21 00:07:38;;;;;;;8.68;3.83;;;11.50;95.70;;;;;;6224290;22;20062;-77
2023/04/21 00:10:09;;;;;;;9.38;3.97;;;11.40;95.70;;;;;;6274966;22;20035;-77
2023/04/21 00:12:37;;;;;;;9.93;4.28;;;11.40;95.80;;;;;;6222997;22;20039;-77
2023/04/21 00:15:04;;;;;;;9.63;3.60;;;11.30;95.90;;;;;;6248623;22;20511;-77
2023/04/21 00:17:31;;;;;;;13.18;3.97;;;11.30;96.10;;;;;;6224438;22;20077;-77
2023/04/21 00:19:58;;;;;;;9.48;3.75;;;11.30;96.40;;;;;;6248495;22;20016;-78
2023/04/21 00:22:26;;;;;;;9.63;3.53;;;11.20;96.00;;;;;;6249309;22;20022;-77
2023/04/21 00:24:53;;;;;;;7.88;3.92;;;11.10;96.00;;;;;;6249881;22;20020;-77
2023/04/21 00:27:20;;;;;;;7.47;3.90;;;11.10;96.40;;;;;;6223563;22;20023;-77
2023/04/21 00:29:47;;;;;;;8.50;3.58;;;11.00;96.30;;;;;;6248101;22;20020;-77
2023/04/21 00:32:15;;;;;;;8.23;3.72;;;11.00;96.40;;;;;;6224962;22;20028;-77
2023/04/21 00:34:42;;;;;;;9.20;3.97;;;11.00;96.60;;;;;;6248401;22;20637;-76
2023/04/21 00:37:11;;;;;;;9.82;3.30;;;11.00;96.40;;;;;;6249780;22;20042;-77
2023/04/21 00:39:38;;;;;;;6.78;3.22;;;11.00;96.40;;;;;;6224578;22;20016;-77
2023/04/21 00:42:05;;;;;;;13.45;4.07;;;11.10;96.20;;;;;;6248930;22;20032;-76
2023/04/21 00:44:34;;;;;;;8.60;4.05;;;11.00;96.20;;;;;;6249246;22;20027;-78
2023/04/21 00:47:02;;;;;;;11.00;3.42;;;11.00;96.20;;;;;;6223808;22;20316;-77
2023/04/21 00:49:30;;;;;;;7.45;3.15;;;11.10;96.50;;;;;;6223246;22;20099;-77
2023/04/21 00:51:57;;;;;;;10.02;3.65;;;11.00;96.70;;;;;;6223161;22;20324;-78
2023/04/21 00:54:24;;;;;;;8.43;3.45;;;11.00;96.50;;;;;;6248845;22;20860;-77
2023/04/21 00:56:55;;;;;;;8.82;4.05;;;11.00;96.40;;;;;;6223850;22;20405;-78
2023/04/21 00:59:23;;;;;;;8.63;3.42;;;10.90;96.50;;;;;;6248515;22;20040;-76
2023/04/21 01:01:51;;;;;;;8.88;3.83;;;11.00;96.90;;;;;;6223627;22;20030;-77
2023/04/21 01:04:20;;;;;;;9.02;3.60;;;10.90;96.70;;;;;;6249307;22;20020;-77
2023/04/21 01:06:47;;;;;;;8.43;3.90;;;10.80;96.70;;;;;;6248609;22;20913;-77
2023/04/21 01:09:15;;;;;;;8.38;3.40;;;10.90;97.20;;;;;;6223789;22;20028;-77
2023/04/21 01:11:58;;;;;;;8.55;4.10;;;10.90;96.90;;;;;;6248497;22;20764;-77
2023/04/21 01:14:25;;;;;;;9.82;3.65;;;10.90;96.80;;;;;;6249313;22;20439;-78
2023/04/21 01:16:52;;;;;;;9.45;3.67;;;10.90;97.10;;;;;;6247926;22;20031;-78
2023/04/21 01:19:20;;;;;;;10.85;4.43;;;10.80;97.40;;;;;;6275150;22;20442;-77
2023/04/21 01:21:48;;;;;;;13.77;4.25;;;10.80;97.30;;;;;;6222466;22;20103;-76
2023/04/21 01:24:15;;;;;;;8.23;3.80;;;10.80;97.50;;;;;;6222346;22;20337;-77
2023/04/21 01:26:44;;;;;;;7.63;3.88;;;10.80;97.50;;;;;;6248083;22;20107;-77
2023/04/21 01:29:11;;;;;;;9.05;4.38;;;10.70;97.60;;;;;;6222097;22;20023;-77
2023/04/21 01:31:39;;;;;;;10.25;4.75;;;10.60;97.70;;;;;;6248218;22;20024;-76
2023/04/21 01:34:06;;;;;;;11.50;4.10;;;10.70;97.90;;;;;;6224600;22;20024;-77
2023/04/21 01:36:36;;;;;;;8.38;3.90;;;10.70;97.70;;;;;;6248453;22;20350;-77
2023/04/21 01:39:03;;;;;;;7.55;3.88;;;10.60;97.70;;;;;;6248291;22;20030;-77
2023/04/21 01:41:30;;;;;;;8.73;3.72;;;10.60;97.70;;;;;;6223364;22;20016;-76
2023/04/21 01:43:57;;;;;;;9.85;4.22;;;10.60;98.00;;;;;;6248128;22;20476;-77
2023/04/21 01:46:24;;;;;;;9.23;4.10;;;10.60;98.30;;;;;;6248008;22;20047;-77
2023/04/21 01:48:51;;;;;;;8.05;3.67;;;10.60;98.80;;;;;;6247807;22;20036;-77
2023/04/21 01:51:19;;;;;;;8.93;4.63;;;10.60;98.10;;;;;;6248030;22;20700;-77
2023/04/21 01:53:46;;;;;;;7.82;3.67;;;10.60;97.90;;;;;;6247866;22;20027;-77
2023/04/21 01:56:14;;;;;;;8.38;3.40;;;10.60;98.20;;;;;;6222647;22;20012;-78
2023/04/21 01:58:41;;;;;;;11.00;3.70;;;10.50;97.80;;;;;;6247332;22;20020;-77
2023/04/21 02:01:08;;;;;;;10.13;4.22;;;10.50;97.80;;;;;;6222255;22;20020;-77
2023/04/21 02:03:35;;;;;;;6.60;4.03;;;10.50;98.00;;;;;;6222134;22;20062;-78
2023/04/21 02:06:03;;;;;;;11.23;3.83;;;10.50;98.00;;;;;;6222779;22;20104;-77
2023/04/21 02:08:30;;;;;;;12.50;3.90;;;10.50;98.20;;;;;;6247894;22;20025;-76
2023/04/21 02:10:57;;;;;;;10.70;3.75;;;10.50;98.50;;;;;;6248059;22;20085;-77
2023/04/21 02:13:24;;;;;;;7.13;3.20;;;10.50;98.40;;;;;;6222632;22;20027;-77
2023/04/21 02:15:51;;;;;;;7.68;3.40;;;10.40;98.20;;;;;;6221210;22;20034;-77
2023/04/21 02:18:33;;;;;;;10.20;3.63;;;10.40;98.70;;;;;;6224691;22;20095;-77
2023/04/21 02:21:01;;;;;;;8.05;3.90;;;10.30;98.10;;;;;;6221558;22;20039;-77
2023/04/21 02:23:28;;;;;;;10.55;4.05;;;10.30;98.10;;;;;;6247546;22;20504;-77
2023/04/21 02:25:55;;;;;;;9.23;3.90;;;10.30;98.00;;;;;;6223108;22;20118;-77
2023/04/21 02:28:22;;;;;;;14.98;4.18;;;10.30;98.30;;;;;;6222303;22;20035;-76
2023/04/21 02:30:49;;;;;;;12.85;3.38;;;10.30;98.20;;;;;;6221878;22;20031;-76
2023/04/21 02:33:17;;;;;;;10.02;3.53;;;10.30;98.40;;;;;;6248519;22;20024;-77
2023/04/21 02:35:44;;;;;;;7.18;3.42;;;10.30;98.10;;;;;;6247279;22;20748;-77
2023/04/21 02:38:11;;;;;;;7.78;3.45;;;10.20;98.80;;;;;;6275071;22;20583;-78
2023/04/21 02:40:41;;;;;;;9.82;4.28;;;10.20;99.00;;;;;;6248223;22;20023;-77
2023/04/21 02:43:08;;;;;;;8.82;3.13;;;10.20;99.50;;;;;;6222610;22;20020;-77
2023/04/21 02:45:39;;;;;;;6.28;2.97;;;10.10;99.40;;;;;;6247036;22;20707;-77
2023/04/21 02:48:06;;;;;;;9.25;3.40;;;10.10;99.20;;;;;;6222330;22;20099;-77
2023/04/21 02:50:33;;;;;;;8.55;4.40;;;10.20;98.80;;;;;;6247861;22;20046;-77
2023/04/21 02:53:01;;;;;;;7.60;3.67;;;10.10;98.40;;;;;;6222761;22;20050;-77
2023/04/21 02:55:28;;;;;;;13.15;4.18;;;10.10;98.10;;;;;;6222478;22;20069;-76
2023/04/21 02:57:55;;;;;;;12.25;3.53;;;10.10;98.10;;;;;;6248034;22;20452;-77
2023/04/21 03:00:23;;;;;;;7.90;3.75;;;10.10;98.40;;;;;;6223621;22;20094;-78
2023/04/21 03:02:52;;;;;;;9.77;3.58;;;10.10;98.10;;;;;;6248392;22;20024;-77
2023/04/21 03:05:20;;;;;;;7.63;3.80;;;10.10;98.60;;;;;;6247431;22;20024;-77
2023/04/21 03:07:47;;;;;;;10.68;3.83;;;10.10;99.10;;;;;;6223546;22;20022;-77
2023/04/21 03:10:14;;;;;;;7.80;3.70;;;10.00;99.50;;;;;;6224182;22;20447;-78
2023/04/21 03:12:41;;;;;;;8.95;3.72;;;10.00;99.50;;;;;;6249953;22;20035;-77
2023/04/21 03:15:08;;;;;;;9.50;3.72;;;9.90;99.50;;;;;;6249239;22;20036;-77
2023/04/21 03:17:35;;;;;;;10.15;4.35;;;9.90;99.30;;;;;;6249441;22;20022;-76
2023/04/21 03:20:07;;;;;;;8.52;4.22;;;9.90;99.70;;;;;;6250199;22;20015;-77
2023/04/21 03:22:40;;;;;;;8.73;4.30;;;9.80;99.60;;;;;;6224594;22;20103;-77
2023/04/21 03:25:07;;;;;;;9.82;4.13;;;9.80;99.90;;;;;;6224761;22;20110;-76
2023/04/21 03:27:34;;;;;;;9.43;4.60;;;9.70;99.90;;;;;;6223993;22;20028;-77
2023/04/21 03:30:03;;;;;;;10.18;4.22;;;9.70;99.90;;;;;;6248821;22;20023;-76
2023/04/21 03:32:30;;;;;;;8.93;4.15;;;9.70;99.90;;;;;;6224471;22;20019;-77
2023/04/21 03:34:57;;;;;;;11.30;5.22;;;9.60;99.90;;;;;;6276646;22;20708;-76
2023/04/21 03:37:24;;;;;;;8.07;4.07;;;9.60;99.90;;;;;;6276671;22;20050;-77
2023/04/21 03:39:51;;;;;;;9.18;4.75;;;9.60;99.90;;;;;;6249897;22;20012;-77
2023/04/21 03:42:19;;;;;;;8.15;4.10;;;9.50;99.90;;;;;;6224967;22;20019;-78
2023/04/21 03:44:47;;;;;;;11.68;4.32;;;9.50;99.90;;;;;;6224092;22;20030;-77
2023/04/21 03:47:16;;;;;;;10.10;4.75;;;9.50;99.90;;;;;;6224397;22;20055;-77
2023/04/21 03:49:43;;;;;;;11.02;5.03;;;9.50;99.90;;;;;;6223673;22;20024;-77
2023/04/21 03:52:10;;;;;;;10.23;5.18;;;9.50;99.90;;;;;;6247823;22;20023;-77
2023/04/21 03:54:37;;;;;;;14.05;5.25;;;9.40;99.90;;;;;;6249456;22;20015;-77
2023/04/21 03:57:04;;;;;;;11.73;5.53;;;9.50;99.90;;;;;;6275639;22;20061;-76
2023/04/21 03:59:31;;;;;;;9.93;5.13;;;9.40;99.90;;;;;;6248755;22;20015;-76
2023/04/21 04:01:58;;;;;;;9.52;5.20;;;9.50;99.90;;;;;;6275773;22;20356;-77
2023/04/21 04:04:25;;;;;;;11.68;5.43;;;9.40;99.90;;;;;;6249975;22;20043;-77
2023/04/21 04:06:53;;;;;;;14.02;5.85;;;9.40;99.90;;;;;;6224042;22;20110;-77
2023/04/21 04:09:20;;;;;;;13.63;5.70;;;9.40;99.90;;;;;;6248943;22;20130;-76
2023/04/21 04:11:47;;;;;;;16.63;5.97;;;9.40;99.90;;;;;;6223738;22;20023;-77
2023/04/21 04:14:14;;;;;;;16.30;7.35;;;9.40;99.90;;;;;;6224554;22;20026;-76
2023/04/21 04:16:42;;;;;;;14.00;6.55;;;9.50;99.90;;;;;;6222796;22;20748;-77
2023/04/21 04:19:09;;;;;;;13.88;4.70;;;9.50;99.90;;;;;;6224753;22;20114;-76
2023/04/21 04:21:36;;;;;;;10.15;4.55;;;9.50;99.90;;;;;;6249212;22;20016;-77
2023/04/21 04:24:07;;;;;;;16.33;5.45;;;9.50;99.90;;;;;;6248813;22;20015;-77
2023/04/21 04:26:37;;;;;;;12.43;5.38;;;9.50;99.80;;;;;;6223231;22;20024;-77
2023/04/21 04:29:04;;;;;;;9.73;5.57;;;9.60;99.70;;;;;;6275613;22;20682;-77
2023/04/21 04:31:32;;;;;;;11.73;5.22;;;9.50;99.60;;;;;;6275401;22;20023;-78
2023/04/21 04:33:59;;;;;;;14.00;4.95;;;9.50;99.30;;;;;;6274078;22;20107;-77
2023/04/21 04:36:27;;;;;;;11.65;4.90;;;9.40;99.50;;;;;;6247812;22;20717;-78
2023/04/21 04:38:55;;;;;;;11.30;3.90;;;9.50;99.40;;;;;;6273919;22;20019;-78
2023/04/21 04:41:23;;;;;;;7.88;4.63;;;9.50;99.30;;;;;;6247296;22;20020;-76
2023/04/21 04:43:50;;;;;;;10.60;4.30;;;9.50;98.90;;;;;;6246172;22;20022;-77
2023/04/21 04:46:19;;;;;;;12.40;4.10;;;9.60;98.90;;;;;;6222971;22;20023;-77
2023/04/21 04:48:47;;;;;;;13.50;4.40;;;9.60;98.80;;;;;;6275580;22;20038;-76
2023/04/21 04:51:15;;;;;;;13.52;4.47;;;9.80;98.40;;;;;;6248221;22;20016;-77
2023/04/21 04:53:42;;;;;;;8.38;3.80;;;9.80;98.10;;;;;;6247966;22;20430;-77
2023/04/21 04:56:09;;;;;;;11.07;3.83;;;9.90;97.70;;;;;;6246628;22;20505;-77
2023/04/21 04:58:36;;;;;;;8.75;4.03;;;9.90;97.50;;;;;;6247745;22;20030;-77
2023/04/21 05:01:16;;;;;;;7.80;3.38;;;9.90;97.20;;;;;;6221108;22;20031;-77
2023/04/21 05:03:44;;;;;;;8.25;2.83;;;9.90;96.80;;;;;;6223173;22;20123;-77
2023/04/21 05:06:12;;;;;;;9.60;3.63;;;10.00;96.30;;;;;;6247699;22;20019;-77
2023/04/21 05:08:40;;;;;;;11.73;4.07;;;10.10;96.70;;;;;;6275632;22;20102;-77
2023/04/21 05:11:07;;;;;;;9.20;4.03;;;10.10;96.70;;;;;;6248333;22;20019;-77
2023/04/21 05:13:35;;;;;;;6.70;3.05;;;10.10;96.30;;;;;;6245759;22;20051;-77
2023/04/21 05:16:06;;;;;;;7.88;3.33;;;10.20;96.00;;;;;;6248809;22;20439;-77
2023/04/21 05:18:33;;;;;;;7.85;2.90;;;10.20;95.80;;;;;;6222307;22;20507;-77
2023/04/21 05:21:00;;;;;;;8.75;2.38;;;10.30;95.00;;;;;;6246395;22;20350;-77
2023/04/21 05:23:27;;;;;;;8.77;2.50;;;10.40;94.70;;;;;;6246651;22;20020;-77
2023/04/21 05:25:54;;;;;;;5.85;1.90;;;10.50;93.90;;;;;;6219789;22;20023;-76
2023/04/21 05:28:22;;;;;;;6.75;2.13;;;10.50;93.00;;;;;;6247302;22;20030;-77
2023/04/21 05:30:49;;;;;;;10.80;2.33;;;10.60;93.10;;;;;;6246069;22;20027;-77
2023/04/21 05:33:20;;;;;;;8.13;3.00;;;10.70;92.70;;;;;;6246100;22;20729;-77
2023/04/21 05:35:47;;;;;;;8.13;2.40;;;10.70;93.00;;;;;;6247400;22;20077;-77
2023/04/21 05:38:14;;;;;;;9.20;2.97;;;10.80;92.90;;;;;;6221527;22;20501;-77
2023/04/21 05:40:41;;;;;;;15.27;3.05;;;10.90;92.60;;;;;;6220590;22;20040;-77
2023/04/21 05:43:08;;;;;;;5.35;2.40;;;11.00;92.20;;;;;;6222238;22;20024;-77
2023/04/21 05:45:39;;;;;;;8.75;2.58;;;11.10;92.00;;;;;;6272934;22;20020;-76
2023/04/21 05:48:06;;;;;;;9.75;2.17;;;11.20;92.00;;;;;;6269601;22;20432;-77
2023/04/21 05:50:34;;;;;;;9.27;2.50;;;11.30;91.40;;;;;;6220462;22;20019;-77
2023/04/21 05:53:01;;;;;;;9.70;2.50;;;11.50;91.00;;;;;;6274862;22;20028;-77
2023/04/21 05:55:28;;;;;;;7.20;2.10;;;11.50;90.30;;;;;;6270533;22;20034;-79
2023/04/21 05:57:58;;;;;;;9.13;2.42;;;11.70;90.30;;;;;;6231062;22;20024;-77
2023/04/21 06:00:25;;;;;;;7.28;2.10;;;11.80;89.70;;;;;;6231468;22;20042;-77
2023/04/21 06:02:52;;;;;;;9.55;2.80;;;11.90;89.30;;;;;;6205760;22;20024;-77
2023/04/21 06:05:20;;;;;;;6.95;2.13;;;12.00;89.50;;;;;;6232009;22;20020;-77
2023/04/21 06:07:47;;;;;;;11.13;2.72;;;12.20;87.60;;;;;;6233514;22;20023;-77
2023/04/21 06:10:17;;;;;;;5.78;2.13;;;12.30;87.50;;;;;;6238706;22;20029;-77
2023/04/21 06:12:44;;;;;;;9.02;2.20;;;12.50;87.00;;;;;;6232983;22;20019;-78
2023/04/21 06:15:11;;;;;;;7.35;1.60;;;12.70;86.80;;;;;;6206965;22;20606;-77
2023/04/21 06:17:38;;;;;;;7.50;1.90;;;12.80;84.00;;;;;;6233449;22;20476;-77
2023/04/21 06:20:07;;;;;;;4.65;1.65;;;12.90;83.50;;;;;;6231482;22;20308;-77
2023/04/21 06:22:34;;;;;;;12.88;2.55;;;13.10;83.10;;;;;;6237145;22;20451;-78
2023/04/21 06:25:01;;;;;;;7.72;1.65;;;13.30;82.50;;;;;;6208454;22;20044;-77
2023/04/21 06:27:28;;;;;;;6.38;1.50;;;13.30;80.00;;;;;;6231034;22;20026;-77
2023/04/21 06:29:57;;;;;;;9.10;1.90;;;13.40;79.00;;;;;;6233880;22;20035;-77
2023/04/21 06:32:24;;;;;;;4.43;1.38;;;13.60;79.10;;;;;;6231749;22;20019;-77
2023/04/21 06:34:51;;;;;;;10.95;1.40;;;13.60;77.00;;;;;;6208380;22;20414;-77
2023/04/21 06:37:18;;;;;;;7.50;1.52;;;13.70;76.60;;;;;;6231544;22;20020;-78
2023/04/21 06:39:45;;;;;;;4.43;1.48;;;13.80;76.00;;;;;;6232090;22;20039;-77
2023/04/21 06:42:12;;;;;;;9.63;1.50;;;14.00;75.20;;;;;;6259503;22;20027;-77
2023/04/21 06:44:41;;;;;;;7.93;1.30;;;14.00;75.10;;;;;;6242137;22;20126;-77
2023/04/21 06:47:09;;;;;;;3.92;1.00;;;14.20;74.90;;;;;;6234296;22;20023;-77
2023/04/21 06:49:36;;;;;;;9.02;1.55;;;14.30;74.20;;;;;;6209174;22;20038;-77
2023/04/21 06:52:03;;;;;;;7.57;1.27;;;14.30;73.20;;;;;;6234279;22;20431;-76
2023/04/21 06:54:30;;;;;;;8.13;1.90;;;14.40;73.30;;;;;;6208243;22;20506;-77
2023/04/21 06:56:57;;;;;;;4.60;1.02;;;14.50;73.20;;;;;;6232715;22;20019;-76
2023/04/21 06:59:25;;;;;;;6.70;1.35;;;14.70;73.20;;;;;;6212159;22;20019;-77
2023/04/21 07:01:52;;;;;;;6.63;1.45;;;14.70;71.20;;;;;;6231404;22;20024;-77
2023/04/21 07:04:19;;;;;;;8.90;1.60;;;14.80;72.80;;;;;;6232430;22;20138;-77
2023/04/21 07:06:48;;;;;;;7.03;1.58;;;15.00;71.50;;;;;;6207813;22;20023;-78
2023/04/21 07:09:15;;;;;;;7.78;1.15;;;15.10;71.10;;;;;;6237533;22;20294;-77
2023/04/21 07:11:42;;;;;;;3.47;0.90;;;15.10;70.10;;;;;;6200981;22;20023;-77
2023/04/21 07:14:09;;;;;;;5.68;1.40;;;15.10;69.70;;;;;;6231105;22;20027;-77
2023/04/21 07:16:36;;;;;;;5.40;0.88;;;15.20;70.10;;;;;;6207152;22;20024;-77
2023/04/21 07:19:04;;;;;;;4.75;1.05;;;15.20;69.60;;;;;;6232689;22;20339;-77
2023/04/21 07:21:34;;;;;;;4.63;0.90;;;15.30;68.10;;;;;;6231295;22;20024;-77
2023/04/21 07:24:02;;;;;;;6.05;1.95;;;15.50;69.10;;;;;;6205988;22;20034;-78
2023/04/21 07:26:29;;;;;;;4.50;1.00;;;15.50;67.30;;;;;;6205159;22;20019;-77
2023/04/21 07:28:57;;;;;;;5.63;0.68;;;15.60;68.00;;;;;;6206363;22;20032;-76
2023/04/21 07:31:24;;;;;;;3.85;0.90;;;15.70;67.80;;;;;;6232044;22;20584;-77
2023/04/21 07:33:51;;;;;;;6.55;0.80;;;15.90;67.60;;;;;;6231268;22;20023;-76
2023/04/21 07:36:19;;;;;;;8.30;0.80;;;15.90;66.80;;;;;;6208034;22;20546;-76
2023/04/21 07:38:45;;;;;;;6.43;0.90;;;16.10;66.60;;;;;;6206994;22;20020;-77
2023/04/21 07:41:13;;;;;;;7.68;0.70;;;16.20;65.40;;;;;;6207054;22;20050;-76
2023/04/21 07:43:40;;;;;;;7.68;0.90;;;16.20;64.10;;;;;;6257311;22;20446;-77
2023/04/21 07:46:07;;;;;;;6.93;0.73;;;16.10;64.30;;;;;;6233031;22;20020;-76
2023/04/21 07:48:34;;;;;;;4.82;0.80;;;16.20;64.80;;;;;;6208108;22;20024;-78
2023/04/21 07:51:02;;;;;;;6.50;1.05;;;16.30;64.60;;;;;;6207611;22;20023;-77
2023/04/21 07:53:29;;;;;;;4.60;0.90;;;16.40;64.30;;;;;;6259008;22;20026;-76
2023/04/21 07:55:57;;;;;;;8.73;0.88;;;16.40;63.90;;;;;;6230574;22;20023;-77
2023/04/21 07:58:24;;;;;;;5.05;0.75;;;16.50;64.30;;;;;;6206426;22;20031;-76
2023/04/21 08:00:51;;;;;;;6.18;0.95;;;16.50;64.90;;;;;;6208972;22;20024;-77
2023/04/21 08:03:18;;;;;;;7.80;0.75;;;16.50;63.90;;;;;;6206922;22;20130;-77
2023/04/21 08:05:49;;;;;;;8.27;0.80;;;16.50;63.40;;;;;;6232795;22;20019;-76
2023/04/21 08:08:19;;;;;;;3.60;0.80;;;16.70;65.00;;;;;;6255399;22;20020;-78
2023/04/21 08:10:46;;;;;;;8.75;0.95;;;16.80;65.10;;;;;;6210600;22;20050;-77
2023/04/21 08:13:13;;;;;;;5.60;1.00;;;16.80;64.80;;;;;;6233357;22;20027;-77
2023/04/21 08:15:40;;;;;;;3.13;0.60;;;16.90;64.20;;;;;;6260884;22;20039;-76
2023/04/21 08:18:08;;;;;;;4.65;1.52;;;16.90;63.70;;;;;;6232301;22;20027;-77
2023/04/21 08:20:35;;;;;;;6.18;1.10;;;17.10;64.20;;;;;;6234733;22;20023;-77
2023/04/21 08:23:02;;;;;;;6.57;1.17;;;17.20;63.40;;;;;;6232841;22;20023;-76
2023/04/21 08:25:29;;;;;;;9.13;0.93;;;17.30;62.70;;;;;;6208514;22;20395;-77
2023/04/21 08:27:56;;;;;;;8.60;1.33;;;17.20;61.20;;;;;;6208167;22;20036;-77
2023/04/21 08:30:26;;;;;;;4.63;1.10;;;17.20;62.10;;;;;;6232461;22;20494;-77
2023/04/21 08:32:54;;;;;;;5.05;1.15;;;17.00;61.90;;;;;;6234084;22;20027;-76
2023/04/21 08:35:21;;;;;;;4.05;0.90;;;17.20;63.10;;;;;;6235177;22;20089;-77
2023/04/21 08:37:48;;;;;;;8.43;1.42;;;17.30;62.60;;;;;;6233098;22;20023;-76
2023/04/21 08:40:18;;;;;;;4.72;1.08;;;17.40;63.50;;;;;;6260809;22;20077;-77
2023/04/21 08:42:47;;;;;;;3.58;1.27;;;17.50;62.80;;;;;;6233275;22;20039;-76
2023/04/21 08:45:14;;;;;;;9.95;1.77;;;17.50;61.80;;;;;;6205794;22;20039;-78
2023/04/21 08:47:41;;;;;;;5.78;0.90;;;17.60;62.80;;;;;;6210440;22;20031;-77
2023/04/21 08:50:12;;;;;;;6.25;1.50;;;17.70;61.40;;;;;;6238650;22;20023;-77
2023/04/21 08:52:39;;;;;;;7.47;1.15;;;17.70;61.10;;;;;;6207067;22;20457;-77
2023/04/21 08:55:08;;;;;;;8.60;1.42;;;17.70;60.80;;;;;;6231843;22;20023;-77
2023/04/21 08:57:35;;;;;;;4.57;1.10;;;17.90;62.60;;;;;;6234237;22;20024;-77
2023/04/21 09:00:03;;;;;;;9.02;1.75;;;17.90;62.30;;;;;;6232597;22;20538;-77
2023/04/21 09:02:52;;;;;;;5.45;1.38;;;18.00;61.80;;;;;;6207220;22;20073;-76
2023/04/21 09:05:32;;;;;;;10.27;2.08;;;18.00;61.30;;;;;;6261890;22;20427;-77
2023/04/21 09:08:11;;;;;;;7.20;1.38;;;18.00;60.70;;;;;;6231873;22;20109;-78
2023/04/21 09:10:46;;;;;;;11.75;2.92;;;18.10;61.80;;;;;;6208479;22;20020;-76
2023/04/21 09:13:14;;;;;;;5.82;1.45;;;18.10;60.90;;;;;;6232035;22;20024;-77
2023/04/21 09:15:43;;;;;;;5.45;2.08;;;18.10;60.10;;;;;;6232550;22;20034;-77
2023/04/21 09:18:14;;;;;;;11.73;2.70;;;18.10;60.00;;;;;;6232625;22;20020;-77
2023/04/21 09:20:43;;;;;;;10.52;2.42;;;18.10;60.70;;;;;;6206664;22;20102;-77
2023/04/21 09:23:11;;;;;;;7.80;1.70;;;18.20;59.50;;;;;;6208458;22;20304;-77
2023/04/21 09:25:40;;;;;;;6.97;1.92;;;18.40;61.20;;;;;;6261160;22;20015;-76
2023/04/21 09:28:16;;;;;;;6.93;1.90;;;18.40;61.10;;;;;;6207129;22;20062;-77
2023/04/21 09:30:43;;;;;;;8.90;2.10;;;18.60;60.20;;;;;;6234112;22;20030;-77
2023/04/21 09:33:16;;;;;;;5.88;1.83;;;18.60;60.30;;;;;;6208573;22;20044;-76
2023/04/21 09:36:00;;;;;;;3.38;1.25;;;18.20;59.20;;;;;;6208981;22;20489;-76
2023/04/21 09:38:27;;;;;;;7.47;1.50;;;18.00;60.50;;;;;;6232690;22;20046;-77
2023/04/21 09:40:58;;;;;;;6.32;1.60;;;18.00;60.40;;;;;;6209903;22;20443;-77
2023/04/21 09:43:25;;;;;;;5.25;1.50;;;17.60;60.00;;;;;;6210815;22;20087;-78
2023/04/21 09:45:54;;;;;;;4.28;1.95;;;17.70;59.60;;;;;;6207935;22;20047;-77
2023/04/21 09:48:28;;;;;;;7.65;2.13;;;17.80;59.70;;;;;;6261027;22;20053;-78
2023/04/21 09:50:57;;;;;;;4.65;1.70;;;18.20;58.00;;;;;;6260590;22;20023;-77
2023/04/21 09:53:28;;;;;;;5.37;2.27;;;18.60;59.50;;;;;;6261002;22;20054;-77
2023/04/21 09:55:58;;;;;;;6.40;2.20;;;19.00;58.30;;;;;;6232447;22;20248;-77
2023/04/21 09:58:33;;;;;;;4.28;2.05;;;19.20;56.50;;;;;;6262887;22;20360;-76
2023/04/21 10:01:03;;;;;;;4.35;1.90;;;19.00;58.00;;;;;;6233385;22;20494;-77
2023/04/21 10:03:31;;;;;;;3.70;1.52;;;18.80;58.00;;;;;;6208042;22;20439;-77
2023/04/21 10:05:59;;;;;;;7.57;3.00;;;18.60;58.90;;;;;;6230402;22;20438;-77
2023/04/21 10:08:26;;;;;;;5.97;3.03;;;18.50;57.40;;;;;;6233209;22;20030;-79
2023/04/21 10:10:54;;;;;;;4.57;2.03;;;18.70;57.80;;;;;;6208282;22;20051;-76
2023/04/21 10:13:21;;;;;;;8.35;2.17;;;18.40;59.10;;;;;;6260380;22;20485;-77
2023/04/21 10:16:03;;;;;;;10.30;2.33;;;18.50;57.90;;;;;;6209618;22;20031;-77
2023/04/21 10:18:31;;;;;;;7.43;2.60;;;18.60;57.90;;;;;;6232052;22;20098;-77
2023/04/21 10:21:03;;;;;;;5.03;2.47;;;18.20;57.90;;;;;;6204065;22;20344;-77
2023/04/21 10:23:42;;;;;;;;;;;18.00;58.40;;;;;;6209563;22;20024;-77
2023/04/21 10:26:15;;;;;;;5.63;2.67;;;17.90;58.60;;;;;;6261687;22;20516;-76
2023/04/21 10:29:05;;;;;;;9.45;3.55;;;18.10;58.80;;;;;;6206234;22;20100;-77
2023/04/21 10:31:50;;;;;;;6.53;1.98;;;18.50;59.40;;;;;;6259272;22;20118;-77
2023/04/21 10:34:19;;;;;;;8.35;2.90;;;18.50;58.70;;;;;;6231903;22;20024;-77
2023/04/21 10:36:53;;;;;;;5.53;2.28;;;18.70;59.20;;;;;;6234711;22;20028;-77
2023/04/21 10:39:41;;;;;;;8.18;2.33;;;18.60;59.20;;;;;;6231490;22;20047;-78
2023/04/21 10:42:11;;;;;;;6.07;2.42;;;18.30;59.60;;;;;;6232221;22;20030;-77
2023/04/21 10:44:57;;;;;;;4.93;2.15;;;18.00;58.70;;;;;;6262343;22;20018;-77
2023/04/21 10:47:25;;;;;;;5.03;2.00;;;17.80;59.10;;;;;;6233797;22;20110;-77
2023/04/21 10:49:55;;;;;;;7.15;3.00;;;18.20;59.30;;;;;;6207804;22;20050;-77
2023/04/21 10:52:32;;;;;;;5.70;2.50;;;18.70;59.40;;;;;;6234605;22;20478;-77
2023/04/21 10:55:11;;;;;;;7.85;2.55;;;18.90;59.70;;;;;;6230528;22;20451;-77
2023/04/21 10:57:41;;;;;;;5.88;3.05;;;19.30;58.10;;;;;;6262142;22;20809;-77
2023/04/21 11:00:10;;;;;;;4.72;2.60;;;18.90;58.60;;;;;;6200845;22;20328;-76
2023/04/21 11:02:37;;;;;;;4.53;2.78;;;19.00;59.30;;;;;;6262485;22;20458;-77
2023/04/21 11:05:09;;;;;;;5.68;2.70;;;19.10;57.40;;;;;;6235757;22;20128;-77
2023/04/21 11:07:36;;;;;;;6.47;2.70;;;19.10;58.20;;;;;;6261975;22;20025;-77
2023/04/21 11:10:06;;;;;;;7.82;2.67;;;18.90;57.70;;;;;;6231794;22;20352;-77
2023/04/21 11:12:37;;;;;;;6.28;2.75;;;18.50;58.50;;;;;;6230974;22;20050;-78
2023/04/21 11:15:09;;;;;;;6.68;2.92;;;18.30;58.80;;;;;;6232033;22;20094;-77
2023/04/21 11:17:42;;;;;;;;;;;18.70;60.70;;;;;;6231407;22;20024;-77
2023/04/21 11:20:10;;;;;;;6.07;2.70;;;19.20;58.20;;;;;;6203243;22;19919;-76
2023/04/21 11:22:37;;;;;;;7.18;3.25;;;19.60;58.00;;;;;;6206983;22;20019;-77
2023/04/21 11:25:05;;;;;;;8.13;3.15;;;19.80;57.20;;;;;;6259474;22;20118;-77
2023/04/21 11:27:32;;;;;;;6.80;2.67;;;20.00;57.80;;;;;;6232456;22;20029;-78
2023/04/21 11:30:02;;;;;;;5.10;3.10;;;20.10;57.00;;;;;;6258385;22;20396;-78
2023/04/21 11:32:29;;;;;;;4.18;2.53;;;20.20;56.70;;;;;;6232679;22;20055;-77
2023/04/21 11:34:57;;;;;;;5.82;2.55;;;20.30;57.60;;;;;;6236349;22;20024;-77
2023/04/21 11:37:26;;;;;;;4.57;2.70;;;20.30;55.90;;;;;;6207663;22;20024;-77
2023/04/21 11:40:00;;;;;;;7.53;3.05;;;20.40;55.40;;;;;;6262495;22;20424;-77
2023/04/21 11:42:27;;;;;;;7.57;2.80;;;20.40;55.40;;;;;;6207921;22;20026;-77
2023/04/21 11:44:56;;;;;;;8.55;3.15;;;20.40;54.90;;;;;;6233866;22;20441;-77
2023/04/21 11:47:27;;;;;;;6.45;2.83;;;20.60;55.20;;;;;;6234483;22;20024;-77
2023/04/21 11:49:57;;;;;;;6.63;2.47;;;20.90;55.10;;;;;;6261240;22;20029;-78
2023/04/21 11:52:32;;;;;;;3.92;2.30;;;21.00;55.10;;;;;;6208930;22;20662;-78
2023/04/21 11:55:02;;;;;;;6.43;2.70;;;21.10;54.00;;;;;;6207145;22;20026;-77
2023/04/21 11:57:31;;;;;;;7.60;2.85;;;21.10;54.90;;;;;;6260783;22;20034;-77
2023/04/21 11:59:59;;;;;;;5.80;2.63;;;21.20;54.20;;;;;;6206342;22;20019;-77
2023/04/21 12:02:29;;;;;;;6.32;2.30;;;21.10;51.80;;;;;;6259452;22;20111;-76
2023/04/21 12:05:14;;;;;;;8.55;2.65;;;20.90;53.20;;;;;;6232902;22;20046;-75
2023/04/21 12:07:43;;;;;;;3.88;2.90;;;21.10;52.30;;;;;;6210540;22;20024;-78
2023/04/21 12:10:20;;;;;;;7.43;2.92;;;21.20;51.90;;;;;;6234016;22;20035;-76
2023/04/21 12:12:47;;;;;;;5.10;2.38;;;21.30;53.00;;;;;;6212366;22;20454;-76
2023/04/21 12:15:20;;;;;;;7.63;2.70;;;21.40;52.40;;;;;;6232969;22;20028;-77
2023/04/21 12:17:50;;;;;;;8.85;2.53;;;21.30;52.10;;;;;;6236070;22;20027;-77
2023/04/21 12:20:19;;;;;;;6.32;2.75;;;21.60;51.70;;;;;;6206945;22;20363;-77
2023/04/21 12:22:47;;;;;;;5.53;2.20;;;21.70;50.40;;;;;;6238993;22;20053;-78
2023/04/21 12:25:15;;;;;;;5.18;2.85;;;21.80;49.40;;;;;;6233505;22;20149;-77
2023/04/21 12:27:56;;;;;;;6.88;2.55;;;21.80;48.80;;;;;;6209866;22;20024;-77
2023/04/21 12:30:23;;;;;;;7.50;2.40;;;21.40;48.70;;;;;;6235565;22;20167;-77
2023/04/21 12:32:50;;;;;;;3.67;2.58;;;20.80;49.70;;;;;;6232589;22;20443;-78
2023/04/21 12:35:18;;;;;;;4.38;2.58;;;20.40;50.40;;;;;;6231841;22;20055;-77
2023/04/21 12:37:45;;;;;;;11.18;3.10;;;20.10;51.30;;;;;;6238091;22;20369;-78
2023/04/21 12:40:14;;;;;;;4.38;2.50;;;19.80;51.20;;;;;;6238414;22;20022;-77
2023/04/21 12:42:42;;;;;;;5.00;2.58;;;19.60;51.80;;;;;;6233526;22;20433;-77
2023/04/21 12:45:09;;;;;;;5.53;2.67;;;19.50;52.70;;;;;;6233024;22;20015;-77
2023/04/21 12:47:36;;;;;;;5.63;2.70;;;19.40;52.70;;;;;;6262507;22;20012;-77
2023/04/21 12:50:04;;;;;;;6.13;3.15;;;19.30;52.70;;;;;;6213918;22;20447;-77
2023/04/21 12:52:31;;;;;;;5.38;2.65;;;19.10;53.50;;;;;;6261254;22;20024;-76
2023/04/21 12:54:58;;;;;;;5.95;2.40;;;19.00;54.00;;;;;;6262835;22;20016;-76